sensor_id;sensor_type;location;lat;lon;timestamp;temperature;humidity
22532;DHT22;11432;46.924;7.114;2022-07-10T00:00:26;18.40;1.00
22532;DHT22;11432;46.924;7.114;2022-07-10T00:02:52;18.20;1.00
22532;DHT22;11432;46.924;7.114;2022-07-10T00:05:19;18.20;1.00
22532;DHT22;11432;46.924;7.114;2022-07-10T00:07:45;18.20;1.00
22532;DHT22;11432;46.924;7.114;2022-07-10T00:10:11;18.20;1.00
22532;DHT22;11432;46.924;7.114;2022-07-10T00:12:37;18.20;1.00
22532;DHT22;11432;46.924;7.114;2022-07-10T00:15:06;18.10;1.00
22532;DHT22;11432;46.924;7.114;2022-07-10T00:17:33;18.10;73.60
22532;DHT22;11432;46.924;7.114;2022-07-10T00:19:59;18.10;5.00
22532;DHT22;11432;46.924;7.114;2022-07-10T00:22:25;18.10;1.00
22532;DHT22;11432;46.924;7.114;2022-07-10T00:24:51;18.00;58.90
22532;DHT22;11432;46.924;7.114;2022-07-10T00:27:17;17.90;58.30
22532;DHT22;11432;46.924;7.114;2022-07-10T00:29:43;17.90;99.90
22532;DHT22;11432;46.924;7.114;2022-07-10T00:32:09;17.80;99.90
22532;DHT22;11432;46.924;7.114;2022-07-10T00:34:35;17.80;99.90
22532;DHT22;11432;46.924;7.114;2022-07-10T00:37:01;18.00;99.90
22532;DHT22;11432;46.924;7.114;2022-07-10T00:39:27;18.00;99.90
22532;DHT22;11432;46.924;7.114;2022-07-10T00:41:52;17.90;99.90
22532;DHT22;11432;46.924;7.114;2022-07-10T00:44:18;17.90;99.90
22532;DHT22;11432;46.924;7.114;2022-07-10T00:46:44;17.90;99.90
22532;DHT22;11432;46.924;7.114;2022-07-10T00:49:09;17.80;99.90
22532;DHT22;11432;46.924;7.114;2022-07-10T00:51:36;17.90;1.00
22532;DHT22;11432;46.924;7.114;2022-07-10T00:54:03;17.90;1.00
22532;DHT22;11432;46.924;7.114;2022-07-10T00:56:30;17.80;1.00
22532;DHT22;11432;46.924;7.114;2022-07-10T00:58:56;17.80;99.90
22532;DHT22;11432;46.924;7.114;2022-07-10T01:01:22;17.80;1.00
22532;DHT22;11432;46.924;7.114;2022-07-10T01:03:48;17.80;99.90
22532;DHT22;11432;46.924;7.114;2022-07-10T01:06:15;17.80;99.90
22532;DHT22;11432;46.924;7.114;2022-07-10T01:08:42;17.80;99.90
22532;DHT22;11432;46.924;7.114;2022-07-10T01:11:09;17.80;99.90
22532;DHT22;11432;46.924;7.114;2022-07-10T01:13:35;17.80;99.90
22532;DHT22;11432;46.924;7.114;2022-07-10T01:16:01;18.00;99.90
22532;DHT22;11432;46.924;7.114;2022-07-10T01:18:27;17.90;99.90
22532;DHT22;11432;46.924;7.114;2022-07-10T01:20:53;17.80;99.90
22532;DHT22;11432;46.924;7.114;2022-07-10T01:23:19;17.70;99.90
22532;DHT22;11432;46.924;7.114;2022-07-10T01:25:45;17.80;99.90
22532;DHT22;11432;46.924;7.114;2022-07-10T01:28:11;17.90;99.90
22532;DHT22;11432;46.924;7.114;2022-07-10T01:30:37;17.90;99.90
22532;DHT22;11432;46.924;7.114;2022-07-10T01:33:02;17.80;99.90
22532;DHT22;11432;46.924;7.114;2022-07-10T01:35:28;17.60;99.90
22532;DHT22;11432;46.924;7.114;2022-07-10T01:37:53;17.40;99.90
22532;DHT22;11432;46.924;7.114;2022-07-10T01:40:19;17.20;99.90
22532;DHT22;11432;46.924;7.114;2022-07-10T01:42:45;17.10;99.90
22532;DHT22;11432;46.924;7.114;2022-07-10T01:45:11;17.30;99.90
22532;DHT22;11432;46.924;7.114;2022-07-10T01:47:37;17.40;99.90
22532;DHT22;11432;46.924;7.114;2022-07-10T01:50:03;17.50;99.90
22532;DHT22;11432;46.924;7.114;2022-07-10T01:52:29;17.60;99.90
22532;DHT22;11432;46.924;7.114;2022-07-10T01:54:55;17.60;1.00
22532;DHT22;11432;46.924;7.114;2022-07-10T01:57:20;17.60;99.90
22532;DHT22;11432;46.924;7.114;2022-07-10T01:59:46;17.50;99.90
22532;DHT22;11432;46.924;7.114;2022-07-10T02:02:11;17.30;99.90
22532;DHT22;11432;46.924;7.114;2022-07-10T02:04:37;17.30;99.90
22532;DHT22;11432;46.924;7.114;2022-07-10T02:07:09;17.20;99.90
22532;DHT22;11432;46.924;7.114;2022-07-10T02:09:35;17.10;99.90
22532;DHT22;11432;46.924;7.114;2022-07-10T02:12:01;17.10;99.90
22532;DHT22;11432;46.924;7.114;2022-07-10T02:14:27;16.90;99.90
22532;DHT22;11432;46.924;7.114;2022-07-10T02:16:53;16.80;99.90
22532;DHT22;11432;46.924;7.114;2022-07-10T02:19:19;17.00;99.90
22532;DHT22;11432;46.924;7.114;2022-07-10T02:21:44;17.00;99.90
22532;DHT22;11432;46.924;7.114;2022-07-10T02:24:11;17.00;99.90
22532;DHT22;11432;46.924;7.114;2022-07-10T02:26:37;16.90;1.00
22532;DHT22;11432;46.924;7.114;2022-07-10T02:29:03;17.00;99.90
22532;DHT22;11432;46.924;7.114;2022-07-10T02:31:28;17.00;99.90
22532;DHT22;11432;46.924;7.114;2022-07-10T02:33:54;17.00;99.90
22532;DHT22;11432;46.924;7.114;2022-07-10T02:36:20;16.90;99.90
22532;DHT22;11432;46.924;7.114;2022-07-10T02:38:45;16.80;99.90
22532;DHT22;11432;46.924;7.114;2022-07-10T02:41:11;16.90;99.90
22532;DHT22;11432;46.924;7.114;2022-07-10T02:43:36;16.80;99.90
22532;DHT22;11432;46.924;7.114;2022-07-10T02:46:02;16.80;99.90
22532;DHT22;11432;46.924;7.114;2022-07-10T02:48:28;16.70;1.00
22532;DHT22;11432;46.924;7.114;2022-07-10T02:50:54;16.60;1.00
22532;DHT22;11432;46.924;7.114;2022-07-10T02:53:20;16.50;1.00
22532;DHT22;11432;46.924;7.114;2022-07-10T02:55:45;16.40;1.00
22532;DHT22;11432;46.924;7.114;2022-07-10T02:58:11;16.30;1.00
22532;DHT22;11432;46.924;7.114;2022-07-10T03:00:37;16.10;1.00
22532;DHT22;11432;46.924;7.114;2022-07-10T03:03:03;16.00;1.00
22532;DHT22;11432;46.924;7.114;2022-07-10T03:05:28;16.10;1.00
22532;DHT22;11432;46.924;7.114;2022-07-10T03:07:54;16.20;1.00
22532;DHT22;11432;46.924;7.114;2022-07-10T03:10:20;16.40;1.00
22532;DHT22;11432;46.924;7.114;2022-07-10T03:12:46;16.60;1.00
22532;DHT22;11432;46.924;7.114;2022-07-10T03:15:13;16.70;1.00
22532;DHT22;11432;46.924;7.114;2022-07-10T03:17:39;16.80;1.00
22532;DHT22;11432;46.924;7.114;2022-07-10T03:20:08;16.90;1.00
22532;DHT22;11432;46.924;7.114;2022-07-10T03:22:34;16.80;1.00
22532;DHT22;11432;46.924;7.114;2022-07-10T03:25:00;16.70;1.00
22532;DHT22;11432;46.924;7.114;2022-07-10T03:27:26;16.70;1.00
22532;DHT22;11432;46.924;7.114;2022-07-10T03:29:51;16.80;1.00
22532;DHT22;11432;46.924;7.114;2022-07-10T03:32:17;16.70;1.00
22532;DHT22;11432;46.924;7.114;2022-07-10T03:34:42;16.60;1.00
22532;DHT22;11432;46.924;7.114;2022-07-10T03:37:08;16.50;1.00
22532;DHT22;11432;46.924;7.114;2022-07-10T03:39:34;16.60;1.00
22532;DHT22;11432;46.924;7.114;2022-07-10T03:42:00;16.70;1.00
22532;DHT22;11432;46.924;7.114;2022-07-10T03:44:25;16.60;1.00
22532;DHT22;11432;46.924;7.114;2022-07-10T03:46:51;16.50;1.00
22532;DHT22;11432;46.924;7.114;2022-07-10T03:49:16;16.60;1.00
22532;DHT22;11432;46.924;7.114;2022-07-10T03:51:42;16.50;1.00
22532;DHT22;11432;46.924;7.114;2022-07-10T03:54:08;16.40;1.00
22532;DHT22;11432;46.924;7.114;2022-07-10T03:56:33;16.20;1.00
22532;DHT22;11432;46.924;7.114;2022-07-10T03:59:17;16.20;1.00
22532;DHT22;11432;46.924;7.114;2022-07-10T04:01:43;16.30;1.00
22532;DHT22;11432;46.924;7.114;2022-07-10T04:04:09;16.10;1.00
22532;DHT22;11432;46.924;7.114;2022-07-10T04:06:35;16.20;1.00
22532;DHT22;11432;46.924;7.114;2022-07-10T04:09:04;16.10;1.00
22532;DHT22;11432;46.924;7.114;2022-07-10T04:11:30;16.10;1.00
22532;DHT22;11432;46.924;7.114;2022-07-10T04:13:56;15.90;1.00
22532;DHT22;11432;46.924;7.114;2022-07-10T04:16:22;15.90;1.00
22532;DHT22;11432;46.924;7.114;2022-07-10T04:18:48;15.90;1.00
22532;DHT22;11432;46.924;7.114;2022-07-10T04:21:14;16.00;1.00
22532;DHT22;11432;46.924;7.114;2022-07-10T04:23:40;16.10;1.00
22532;DHT22;11432;46.924;7.114;2022-07-10T04:26:05;16.10;1.00
22532;DHT22;11432;46.924;7.114;2022-07-10T04:28:31;16.20;1.00
22532;DHT22;11432;46.924;7.114;2022-07-10T04:30:57;16.20;1.00
22532;DHT22;11432;46.924;7.114;2022-07-10T04:33:22;16.20;1.00
22532;DHT22;11432;46.924;7.114;2022-07-10T04:35:48;16.40;1.00
22532;DHT22;11432;46.924;7.114;2022-07-10T04:38:14;16.50;1.00
22532;DHT22;11432;46.924;7.114;2022-07-10T04:40:40;16.50;1.00
22532;DHT22;11432;46.924;7.114;2022-07-10T04:43:05;16.50;1.00
22532;DHT22;11432;46.924;7.114;2022-07-10T04:45:31;16.50;1.00
22532;DHT22;11432;46.924;7.114;2022-07-10T04:47:57;16.40;1.00
22532;DHT22;11432;46.924;7.114;2022-07-10T04:50:22;16.30;1.00
22532;DHT22;11432;46.924;7.114;2022-07-10T04:52:48;16.40;1.00
22532;DHT22;11432;46.924;7.114;2022-07-10T04:55:14;16.50;1.00
22532;DHT22;11432;46.924;7.114;2022-07-10T04:57:40;16.60;1.00
22532;DHT22;11432;46.924;7.114;2022-07-10T05:00:10;16.60;1.00
22532;DHT22;11432;46.924;7.114;2022-07-10T05:02:36;16.70;1.00
22532;DHT22;11432;46.924;7.114;2022-07-10T05:05:02;16.80;1.00
22532;DHT22;11432;46.924;7.114;2022-07-10T05:07:27;16.90;99.90
22532;DHT22;11432;46.924;7.114;2022-07-10T05:09:53;16.80;1.00
22532;DHT22;11432;46.924;7.114;2022-07-10T05:12:19;16.80;1.00
22532;DHT22;11432;46.924;7.114;2022-07-10T05:14:44;16.90;1.00
22532;DHT22;11432;46.924;7.114;2022-07-10T05:17:10;16.90;99.90
22532;DHT22;11432;46.924;7.114;2022-07-10T05:19:35;17.10;99.90
22532;DHT22;11432;46.924;7.114;2022-07-10T05:22:01;17.10;99.90
22532;DHT22;11432;46.924;7.114;2022-07-10T05:24:27;17.30;99.90
22532;DHT22;11432;46.924;7.114;2022-07-10T05:26:52;17.20;99.90
22532;DHT22;11432;46.924;7.114;2022-07-10T05:29:18;17.10;99.90
22532;DHT22;11432;46.924;7.114;2022-07-10T05:31:43;17.30;1.00
22532;DHT22;11432;46.924;7.114;2022-07-10T05:34:09;17.40;99.90
22532;DHT22;11432;46.924;7.114;2022-07-10T05:36:35;17.40;1.00
22532;DHT22;11432;46.924;7.114;2022-07-10T05:39:01;17.40;1.00
22532;DHT22;11432;46.924;7.114;2022-07-10T05:41:26;17.40;1.00
22532;DHT22;11432;46.924;7.114;2022-07-10T05:43:53;17.50;1.00
22532;DHT22;11432;46.924;7.114;2022-07-10T05:46:19;17.50;1.00
22532;DHT22;11432;46.924;7.114;2022-07-10T05:48:44;17.60;1.00
22532;DHT22;11432;46.924;7.114;2022-07-10T05:51:10;17.60;1.00
22532;DHT22;11432;46.924;7.114;2022-07-10T05:53:37;17.80;1.00
22532;DHT22;11432;46.924;7.114;2022-07-10T05:56:02;17.90;1.00
22532;DHT22;11432;46.924;7.114;2022-07-10T05:58:28;18.00;1.00
22532;DHT22;11432;46.924;7.114;2022-07-10T06:00:55;18.10;1.00
22532;DHT22;11432;46.924;7.114;2022-07-10T06:03:20;18.10;1.00
22532;DHT22;11432;46.924;7.114;2022-07-10T06:05:47;18.20;1.00
22532;DHT22;11432;46.924;7.114;2022-07-10T06:08:13;18.30;1.00
22532;DHT22;11432;46.924;7.114;2022-07-10T06:10:39;18.40;1.00
22532;DHT22;11432;46.924;7.114;2022-07-10T06:13:11;18.50;1.00
22532;DHT22;11432;46.924;7.114;2022-07-10T06:15:36;18.60;1.00
22532;DHT22;11432;46.924;7.114;2022-07-10T06:18:02;18.70;1.00
22532;DHT22;11432;46.924;7.114;2022-07-10T06:20:28;18.90;11.50
22532;DHT22;11432;46.924;7.114;2022-07-10T06:22:54;18.80;18.40
22532;DHT22;11432;46.924;7.114;2022-07-10T06:25:20;18.90;1.00
22532;DHT22;11432;46.924;7.114;2022-07-10T06:27:46;18.80;1.00
22532;DHT22;11432;46.924;7.114;2022-07-10T06:30:11;18.60;1.00
22532;DHT22;11432;46.924;7.114;2022-07-10T06:32:38;18.60;1.00
22532;DHT22;11432;46.924;7.114;2022-07-10T06:35:04;18.70;1.00
22532;DHT22;11432;46.924;7.114;2022-07-10T06:37:31;18.70;1.00
22532;DHT22;11432;46.924;7.114;2022-07-10T06:39:57;18.70;1.00
22532;DHT22;11432;46.924;7.114;2022-07-10T06:42:22;18.70;1.00
22532;DHT22;11432;46.924;7.114;2022-07-10T06:44:48;18.80;1.00
22532;DHT22;11432;46.924;7.114;2022-07-10T06:47:16;18.80;1.00
22532;DHT22;11432;46.924;7.114;2022-07-10T06:50:03;18.90;1.00
22532;DHT22;11432;46.924;7.114;2022-07-10T06:52:31;19.20;1.00
22532;DHT22;11432;46.924;7.114;2022-07-10T06:54:57;19.40;1.00
22532;DHT22;11432;46.924;7.114;2022-07-10T06:57:23;19.40;1.00
22532;DHT22;11432;46.924;7.114;2022-07-10T06:59:48;19.40;1.00
22532;DHT22;11432;46.924;7.114;2022-07-10T07:02:14;19.50;1.00
22532;DHT22;11432;46.924;7.114;2022-07-10T07:04:39;19.60;1.00
22532;DHT22;11432;46.924;7.114;2022-07-10T07:07:05;19.70;1.00
22532;DHT22;11432;46.924;7.114;2022-07-10T07:09:31;19.90;1.00
22532;DHT22;11432;46.924;7.114;2022-07-10T07:11:56;20.00;44.70
22532;DHT22;11432;46.924;7.114;2022-07-10T07:14:22;20.10;59.80
22532;DHT22;11432;46.924;7.114;2022-07-10T07:16:48;20.30;38.70
22532;DHT22;11432;46.924;7.114;2022-07-10T07:19:24;20.50;72.80
22532;DHT22;11432;46.924;7.114;2022-07-10T07:22:08;20.50;80.90
22532;DHT22;11432;46.924;7.114;2022-07-10T07:24:52;20.60;90.30
22532;DHT22;11432;46.924;7.114;2022-07-10T07:27:18;20.50;91.20
22532;DHT22;11432;46.924;7.114;2022-07-10T07:29:43;20.60;90.30
22532;DHT22;11432;46.924;7.114;2022-07-10T07:32:09;20.90;91.70
22532;DHT22;11432;46.924;7.114;2022-07-10T07:34:35;21.00;93.50
22532;DHT22;11432;46.924;7.114;2022-07-10T07:37:00;21.10;96.10
22532;DHT22;11432;46.924;7.114;2022-07-10T07:39:26;21.20;99.40
22532;DHT22;11432;46.924;7.114;2022-07-10T07:41:51;21.20;89.70
22532;DHT22;11432;46.924;7.114;2022-07-10T07:44:17;21.30;88.90
22532;DHT22;11432;46.924;7.114;2022-07-10T07:46:43;21.30;94.70
22532;DHT22;11432;46.924;7.114;2022-07-10T07:49:09;21.40;97.80
22532;DHT22;11432;46.924;7.114;2022-07-10T07:51:35;21.50;99.90
22532;DHT22;11432;46.924;7.114;2022-07-10T07:54:00;21.60;99.90
22532;DHT22;11432;46.924;7.114;2022-07-10T07:56:26;21.80;99.90
22532;DHT22;11432;46.924;7.114;2022-07-10T07:58:51;21.80;99.90
22532;DHT22;11432;46.924;7.114;2022-07-10T08:01:17;22.00;99.90
22532;DHT22;11432;46.924;7.114;2022-07-10T08:03:45;22.00;99.90
22532;DHT22;11432;46.924;7.114;2022-07-10T08:06:11;22.00;99.90
22532;DHT22;11432;46.924;7.114;2022-07-10T08:08:37;21.90;99.90
22532;DHT22;11432;46.924;7.114;2022-07-10T08:11:03;21.80;99.90
22532;DHT22;11432;46.924;7.114;2022-07-10T08:13:29;21.90;99.90
22532;DHT22;11432;46.924;7.114;2022-07-10T08:15:54;21.90;99.90
22532;DHT22;11432;46.924;7.114;2022-07-10T08:18:20;21.80;99.90
22532;DHT22;11432;46.924;7.114;2022-07-10T08:20:46;21.80;99.90
22532;DHT22;11432;46.924;7.114;2022-07-10T08:23:11;21.90;99.90
22532;DHT22;11432;46.924;7.114;2022-07-10T08:25:37;21.80;99.90
22532;DHT22;11432;46.924;7.114;2022-07-10T08:28:03;22.10;99.90
22532;DHT22;11432;46.924;7.114;2022-07-10T08:30:31;22.30;99.90
22532;DHT22;11432;46.924;7.114;2022-07-10T08:32:57;22.40;99.90
22532;DHT22;11432;46.924;7.114;2022-07-10T08:35:23;22.20;99.90
22532;DHT22;11432;46.924;7.114;2022-07-10T08:37:48;22.10;99.90
22532;DHT22;11432;46.924;7.114;2022-07-10T08:40:16;22.20;99.90
22532;DHT22;11432;46.924;7.114;2022-07-10T08:42:42;22.30;99.90
22532;DHT22;11432;46.924;7.114;2022-07-10T08:45:11;22.50;99.90
22532;DHT22;11432;46.924;7.114;2022-07-10T08:47:38;22.70;99.90
22532;DHT22;11432;46.924;7.114;2022-07-10T08:53:00;22.60;99.90
22532;DHT22;11432;46.924;7.114;2022-07-10T08:55:26;22.60;99.90
22532;DHT22;11432;46.924;7.114;2022-07-10T08:57:54;22.70;98.40
22532;DHT22;11432;46.924;7.114;2022-07-10T09:00:22;23.00;99.10
22532;DHT22;11432;46.924;7.114;2022-07-10T09:02:47;23.10;99.70
22532;DHT22;11432;46.924;7.114;2022-07-10T09:05:13;23.10;99.60
22532;DHT22;11432;46.924;7.114;2022-07-10T09:07:40;23.00;99.90
22532;DHT22;11432;46.924;7.114;2022-07-10T09:10:10;23.10;99.90
22532;DHT22;11432;46.924;7.114;2022-07-10T09:15:22;23.50;99.10
22532;DHT22;11432;46.924;7.114;2022-07-10T09:17:57;23.70;99.90
22532;DHT22;11432;46.924;7.114;2022-07-10T09:20:27;23.60;97.90
22532;DHT22;11432;46.924;7.114;2022-07-10T09:22:55;23.50;97.00
22532;DHT22;11432;46.924;7.114;2022-07-10T09:25:21;23.70;97.90
22532;DHT22;11432;46.924;7.114;2022-07-10T09:27:53;23.80;95.10
22532;DHT22;11432;46.924;7.114;2022-07-10T09:30:36;23.80;95.10
22532;DHT22;11432;46.924;7.114;2022-07-10T09:33:16;24.10;95.50
22532;DHT22;11432;46.924;7.114;2022-07-10T09:35:59;24.30;96.40
22532;DHT22;11432;46.924;7.114;2022-07-10T09:41:13;24.40;93.80
22532;DHT22;11432;46.924;7.114;2022-07-10T09:43:52;24.30;92.50
22532;DHT22;11432;46.924;7.114;2022-07-10T09:46:25;24.00;93.90
22532;DHT22;11432;46.924;7.114;2022-07-10T09:51:43;24.40;94.30
22532;DHT22;11432;46.924;7.114;2022-07-10T09:54:10;24.80;96.10
22532;DHT22;11432;46.924;7.114;2022-07-10T09:56:40;25.10;91.70
22532;DHT22;11432;46.924;7.114;2022-07-10T09:59:14;24.70;92.90
22532;DHT22;11432;46.924;7.114;2022-07-10T10:01:50;24.70;87.70
22532;DHT22;11432;46.924;7.114;2022-07-10T10:04:21;24.80;87.40
22532;DHT22;11432;46.924;7.114;2022-07-10T10:06:51;24.70;89.00
22532;DHT22;11432;46.924;7.114;2022-07-10T10:09:25;24.40;91.70
22532;DHT22;11432;46.924;7.114;2022-07-10T10:11:56;24.60;90.70
22532;DHT22;11432;46.924;7.114;2022-07-10T10:14:23;24.80;88.30
22532;DHT22;11432;46.924;7.114;2022-07-10T10:16:50;25.20;90.90
22532;DHT22;11432;46.924;7.114;2022-07-10T10:19:19;24.90;90.50
22532;DHT22;11432;46.924;7.114;2022-07-10T10:22:06;24.50;87.60
22532;DHT22;11432;46.924;7.114;2022-07-10T10:24:33;24.90;85.10
22532;DHT22;11432;46.924;7.114;2022-07-10T10:27:00;25.40;83.70
22532;DHT22;11432;46.924;7.114;2022-07-10T10:29:26;25.70;87.00
22532;DHT22;11432;46.924;7.114;2022-07-10T10:31:53;26.00;82.40
22532;DHT22;11432;46.924;7.114;2022-07-10T10:34:45;26.00;77.20
22532;DHT22;11432;46.924;7.114;2022-07-10T10:37:40;25.90;80.00
22532;DHT22;11432;46.924;7.114;2022-07-10T10:40:10;25.30;79.60
22532;DHT22;11432;46.924;7.114;2022-07-10T10:42:43;25.60;84.10
22532;DHT22;11432;46.924;7.114;2022-07-10T10:45:25;25.90;75.60
22532;DHT22;11432;46.924;7.114;2022-07-10T10:48:00;25.50;74.20
22532;DHT22;11432;46.924;7.114;2022-07-10T10:53:21;25.70;75.40
22532;DHT22;11432;46.924;7.114;2022-07-10T11:01:03;25.50;71.10
22532;DHT22;11432;46.924;7.114;2022-07-10T11:03:29;25.60;73.00
22532;DHT22;11432;46.924;7.114;2022-07-10T11:05:55;26.00;69.10
22532;DHT22;11432;46.924;7.114;2022-07-10T11:08:38;26.30;68.40
22532;DHT22;11432;46.924;7.114;2022-07-10T11:11:37;26.60;60.60
22532;DHT22;11432;46.924;7.114;2022-07-10T11:14:03;26.40;54.00
22532;DHT22;11432;46.924;7.114;2022-07-10T11:16:31;26.60;58.40
22532;DHT22;11432;46.924;7.114;2022-07-10T11:18:57;27.00;59.50
22532;DHT22;11432;46.924;7.114;2022-07-10T11:21:25;27.10;53.70
22532;DHT22;11432;46.924;7.114;2022-07-10T11:24:08;26.90;53.30
22532;DHT22;11432;46.924;7.114;2022-07-10T11:29:12;26.60;56.20
22532;DHT22;11432;46.924;7.114;2022-07-10T11:31:37;26.50;55.40
22532;DHT22;11432;46.924;7.114;2022-07-10T11:34:09;26.80;51.70
22532;DHT22;11432;46.924;7.114;2022-07-10T11:36:39;26.30;45.60
22532;DHT22;11432;46.924;7.114;2022-07-10T11:39:08;26.10;42.10
22532;DHT22;11432;46.924;7.114;2022-07-10T11:41:44;26.00;42.20
22532;DHT22;11432;46.924;7.114;2022-07-10T11:44:17;26.30;43.50
22532;DHT22;11432;46.924;7.114;2022-07-10T11:46:44;26.30;44.10
22532;DHT22;11432;46.924;7.114;2022-07-10T11:49:11;26.00;50.00
22532;DHT22;11432;46.924;7.114;2022-07-10T11:51:38;26.70;46.40
22532;DHT22;11432;46.924;7.114;2022-07-10T11:54:06;26.70;44.20
22532;DHT22;11432;46.924;7.114;2022-07-10T11:56:35;27.20;38.80
22532;DHT22;11432;46.924;7.114;2022-07-10T11:59:06;27.20;50.50
22532;DHT22;11432;46.924;7.114;2022-07-10T12:01:35;27.10;51.00
22532;DHT22;11432;46.924;7.114;2022-07-10T12:04:03;27.30;44.60
22532;DHT22;11432;46.924;7.114;2022-07-10T12:06:35;27.30;42.80
22532;DHT22;11432;46.924;7.114;2022-07-10T12:09:06;27.30;31.80
22532;DHT22;11432;46.924;7.114;2022-07-10T12:11:33;27.20;27.40
22532;DHT22;11432;46.924;7.114;2022-07-10T12:16:41;27.40;27.30
22532;DHT22;11432;46.924;7.114;2022-07-10T12:19:08;27.40;28.30
22532;DHT22;11432;46.924;7.114;2022-07-10T12:21:35;27.70;29.10
22532;DHT22;11432;46.924;7.114;2022-07-10T12:24:02;27.90;24.30
22532;DHT22;11432;46.924;7.114;2022-07-10T12:26:35;27.90;17.50
22532;DHT22;11432;46.924;7.114;2022-07-10T12:29:02;27.70;20.30
22532;DHT22;11432;46.924;7.114;2022-07-10T12:31:33;27.30;18.20
22532;DHT22;11432;46.924;7.114;2022-07-10T12:34:00;27.70;20.90
22532;DHT22;11432;46.924;7.114;2022-07-10T12:36:52;27.60;14.90
22532;DHT22;11432;46.924;7.114;2022-07-10T12:39:22;27.70;13.50
22532;DHT22;11432;46.924;7.114;2022-07-10T12:44:31;28.50;17.00
22532;DHT22;11432;46.924;7.114;2022-07-10T12:47:04;28.40;12.00
22532;DHT22;11432;46.924;7.114;2022-07-10T12:52:28;28.60;10.90
22532;DHT22;11432;46.924;7.114;2022-07-10T12:55:16;29.30;9.50
22532;DHT22;11432;46.924;7.114;2022-07-10T13:00:16;28.90;6.40
22532;DHT22;11432;46.924;7.114;2022-07-10T13:02:44;29.30;3.30
22532;DHT22;11432;46.924;7.114;2022-07-10T13:05:10;28.70;3.30
22532;DHT22;11432;46.924;7.114;2022-07-10T13:07:36;28.50;3.10
22532;DHT22;11432;46.924;7.114;2022-07-10T13:10:06;28.80;9.60
22532;DHT22;11432;46.924;7.114;2022-07-10T13:12:33;29.50;1.50
22532;DHT22;11432;46.924;7.114;2022-07-10T13:15:00;29.40;1.00
22532;DHT22;11432;46.924;7.114;2022-07-10T13:17:26;29.80;1.00
22532;DHT22;11432;46.924;7.114;2022-07-10T13:19:52;30.40;1.00
22532;DHT22;11432;46.924;7.114;2022-07-10T13:22:17;30.90;1.00
22532;DHT22;11432;46.924;7.114;2022-07-10T13:24:43;30.90;1.00
22532;DHT22;11432;46.924;7.114;2022-07-10T13:27:09;31.50;1.00
22532;DHT22;11432;46.924;7.114;2022-07-10T13:29:35;31.50;2.90
22532;DHT22;11432;46.924;7.114;2022-07-10T13:32:01;31.70;6.10
22532;DHT22;11432;46.924;7.114;2022-07-10T13:34:28;31.30;1.10
22532;DHT22;11432;46.924;7.114;2022-07-10T13:36:53;31.60;2.70
22532;DHT22;11432;46.924;7.114;2022-07-10T13:39:21;31.90;1.20
22532;DHT22;11432;46.924;7.114;2022-07-10T13:41:46;31.90;1.00
22532;DHT22;11432;46.924;7.114;2022-07-10T13:44:12;31.80;1.20
22532;DHT22;11432;46.924;7.114;2022-07-10T13:46:38;31.80;1.70
22532;DHT22;11432;46.924;7.114;2022-07-10T13:49:05;31.30;5.60
22532;DHT22;11432;46.924;7.114;2022-07-10T13:51:31;31.70;8.40
22532;DHT22;11432;46.924;7.114;2022-07-10T13:53:57;30.80;1.90
22532;DHT22;11432;46.924;7.114;2022-07-10T13:56:23;30.40;8.40
22532;DHT22;11432;46.924;7.114;2022-07-10T13:58:51;30.40;1.00
22532;DHT22;11432;46.924;7.114;2022-07-10T14:01:16;30.60;1.00
22532;DHT22;11432;46.924;7.114;2022-07-10T14:03:42;30.70;1.00
22532;DHT22;11432;46.924;7.114;2022-07-10T14:06:08;30.70;1.00
22532;DHT22;11432;46.924;7.114;2022-07-10T14:08:33;30.20;1.00
22532;DHT22;11432;46.924;7.114;2022-07-10T14:10:59;30.30;1.00
22532;DHT22;11432;46.924;7.114;2022-07-10T14:13:25;30.40;1.00
22532;DHT22;11432;46.924;7.114;2022-07-10T14:15:50;31.00;1.00
22532;DHT22;11432;46.924;7.114;2022-07-10T14:18:17;30.60;1.00
22532;DHT22;11432;46.924;7.114;2022-07-10T14:21:01;30.50;1.00
22532;DHT22;11432;46.924;7.114;2022-07-10T14:23:30;31.20;1.00
22532;DHT22;11432;46.924;7.114;2022-07-10T14:25:56;31.20;1.00
22532;DHT22;11432;46.924;7.114;2022-07-10T14:28:22;31.30;1.00
22532;DHT22;11432;46.924;7.114;2022-07-10T14:30:49;31.40;1.00
22532;DHT22;11432;46.924;7.114;2022-07-10T14:33:14;31.10;1.00
22532;DHT22;11432;46.924;7.114;2022-07-10T14:35:40;31.80;1.00
22532;DHT22;11432;46.924;7.114;2022-07-10T14:38:06;31.30;1.00
22532;DHT22;11432;46.924;7.114;2022-07-10T14:40:33;31.50;1.00
22532;DHT22;11432;46.924;7.114;2022-07-10T14:42:58;31.20;1.00
22532;DHT22;11432;46.924;7.114;2022-07-10T14:45:24;31.50;1.00
22532;DHT22;11432;46.924;7.114;2022-07-10T14:47:50;31.60;1.00
22532;DHT22;11432;46.924;7.114;2022-07-10T14:50:16;31.80;1.00
22532;DHT22;11432;46.924;7.114;2022-07-10T14:52:43;32.00;1.00
22532;DHT22;11432;46.924;7.114;2022-07-10T14:55:09;32.00;1.00
22532;DHT22;11432;46.924;7.114;2022-07-10T14:57:34;32.30;1.00
22532;DHT22;11432;46.924;7.114;2022-07-10T15:00:00;32.50;1.00
22532;DHT22;11432;46.924;7.114;2022-07-10T15:02:26;32.70;1.00
22532;DHT22;11432;46.924;7.114;2022-07-10T15:04:51;32.70;1.00
22532;DHT22;11432;46.924;7.114;2022-07-10T15:07:17;32.00;1.00
22532;DHT22;11432;46.924;7.114;2022-07-10T15:09:44;32.60;1.00
22532;DHT22;11432;46.924;7.114;2022-07-10T15:12:09;32.80;1.00
22532;DHT22;11432;46.924;7.114;2022-07-10T15:14:35;32.80;1.00
22532;DHT22;11432;46.924;7.114;2022-07-10T15:17:01;33.10;1.00
22532;DHT22;11432;46.924;7.114;2022-07-10T15:19:26;33.50;1.00
22532;DHT22;11432;46.924;7.114;2022-07-10T15:21:52;33.20;1.00
22532;DHT22;11432;46.924;7.114;2022-07-10T15:24:18;33.30;1.00
22532;DHT22;11432;46.924;7.114;2022-07-10T15:26:44;32.80;1.00
22532;DHT22;11432;46.924;7.114;2022-07-10T15:29:10;33.30;1.00
22532;DHT22;11432;46.924;7.114;2022-07-10T15:31:36;33.50;1.00
22532;DHT22;11432;46.924;7.114;2022-07-10T15:34:09;33.40;1.00
22532;DHT22;11432;46.924;7.114;2022-07-10T15:36:37;33.40;1.00
22532;DHT22;11432;46.924;7.114;2022-07-10T15:39:03;33.10;1.00
22532;DHT22;11432;46.924;7.114;2022-07-10T15:41:29;32.90;1.00
22532;DHT22;11432;46.924;7.114;2022-07-10T15:43:55;32.80;1.00
22532;DHT22;11432;46.924;7.114;2022-07-10T15:46:20;33.00;1.00
22532;DHT22;11432;46.924;7.114;2022-07-10T15:48:46;33.00;1.00
22532;DHT22;11432;46.924;7.114;2022-07-10T15:51:11;32.60;1.00
22532;DHT22;11432;46.924;7.114;2022-07-10T15:53:41;32.10;1.00
22532;DHT22;11432;46.924;7.114;2022-07-10T15:56:07;31.30;1.00
22532;DHT22;11432;46.924;7.114;2022-07-10T15:58:32;32.10;1.00
22532;DHT22;11432;46.924;7.114;2022-07-10T16:00:58;31.80;1.00
22532;DHT22;11432;46.924;7.114;2022-07-10T16:03:24;31.70;1.00
22532;DHT22;11432;46.924;7.114;2022-07-10T16:05:50;32.30;1.00
22532;DHT22;11432;46.924;7.114;2022-07-10T16:08:16;31.70;1.00
22532;DHT22;11432;46.924;7.114;2022-07-10T16:10:46;31.00;1.00